sensor_id;sensor_type;location;lat;lon;timestamp;P1;durP1;ratioP1;P2;durP2;ratioP2
6997;SDS011;3539;47.982;12.238;2023-05-10T00:00:39;1.50;;;1.30;;
6997;SDS011;3539;47.982;12.238;2023-05-10T00:03:06;1.30;;;1.20;;
6997;SDS011;3539;47.982;12.238;2023-05-10T00:05:32;1.80;;;1.40;;
6997;SDS011;3539;47.982;12.238;2023-05-10T00:07:59;1.37;;;1.27;;
6997;SDS011;3539;47.982;12.238;2023-05-10T00:10:26;1.50;;;1.40;;
6997;SDS011;3539;47.982;12.238;2023-05-10T00:12:55;1.60;;;1.50;;
6997;SDS011;3539;47.982;12.238;2023-05-10T00:15:22;1.60;;;1.50;;
6997;SDS011;3539;47.982;12.238;2023-05-10T00:17:49;1.67;;;1.37;;
6997;SDS011;3539;47.982;12.238;2023-05-10T00:20:15;1.57;;;1.47;;
6997;SDS011;3539;47.982;12.238;2023-05-10T00:22:42;2.30;;;1.80;;
6997;SDS011;3539;47.982;12.238;2023-05-10T00:25:09;2.20;;;1.70;;
6997;SDS011;3539;47.982;12.238;2023-05-10T00:27:36;1.60;;;1.50;;
6997;SDS011;3539;47.982;12.238;2023-05-10T00:30:07;2.30;;;1.60;;
6997;SDS011;3539;47.982;12.238;2023-05-10T00:32:35;2.53;;;1.70;;
6997;SDS011;3539;47.982;12.238;2023-05-10T00:35:01;1.83;;;1.67;;
6997;SDS011;3539;47.982;12.238;2023-05-10T00:37:28;1.70;;;1.60;;
6997;SDS011;3539;47.982;12.238;2023-05-10T00:39:55;1.93;;;1.73;;
6997;SDS011;3539;47.982;12.238;2023-05-10T00:42:22;1.83;;;1.73;;
6997;SDS011;3539;47.982;12.238;2023-05-10T00:44:49;1.60;;;1.50;;
6997;SDS011;3539;47.982;12.238;2023-05-10T00:47:17;1.80;;;1.70;;
6997;SDS011;3539;47.982;12.238;2023-05-10T00:49:44;1.70;;;1.60;;
6997;SDS011;3539;47.982;12.238;2023-05-10T00:52:11;1.73;;;1.60;;
6997;SDS011;3539;47.982;12.238;2023-05-10T00:54:38;2.47;;;1.80;;
6997;SDS011;3539;47.982;12.238;2023-05-10T00:57:05;2.10;;;1.80;;
6997;SDS011;3539;47.982;12.238;2023-05-10T00:59:32;2.03;;;1.83;;
6997;SDS011;3539;47.982;12.238;2023-05-10T01:01:59;2.17;;;1.97;;
6997;SDS011;3539;47.982;12.238;2023-05-10T01:04:27;1.83;;;1.73;;
6997;SDS011;3539;47.982;12.238;2023-05-10T01:06:54;2.67;;;2.00;;
6997;SDS011;3539;47.982;12.238;2023-05-10T01:09:21;2.00;;;1.80;;
6997;SDS011;3539;47.982;12.238;2023-05-10T01:11:48;1.83;;;1.73;;
6997;SDS011;3539;47.982;12.238;2023-05-10T01:14:17;2.30;;;1.80;;
6997;SDS011;3539;47.982;12.238;2023-05-10T01:16:48;2.57;;;1.87;;
6997;SDS011;3539;47.982;12.238;2023-05-10T01:19:17;3.23;;;1.97;;
6997;SDS011;3539;47.982;12.238;2023-05-10T01:21:49;1.70;;;1.60;;
6997;SDS011;3539;47.982;12.238;2023-05-10T01:24:33;1.70;;;1.60;;
6997;SDS011;3539;47.982;12.238;2023-05-10T01:30:29;1.57;;;1.47;;
6997;SDS011;3539;47.982;12.238;2023-05-10T01:33:09;1.33;;;1.23;;
6997;SDS011;3539;47.982;12.238;2023-05-10T01:35:39;1.90;;;1.80;;
6997;SDS011;3539;47.982;12.238;2023-05-10T01:38:10;3.60;;;1.60;;
6997;SDS011;3539;47.982;12.238;2023-05-10T01:40:47;1.93;;;1.80;;
6997;SDS011;3539;47.982;12.238;2023-05-10T01:43:21;2.10;;;1.83;;
6997;SDS011;3539;47.982;12.238;2023-05-10T01:45:52;1.70;;;1.60;;
6997;SDS011;3539;47.982;12.238;2023-05-10T01:48:27;2.03;;;1.80;;
6997;SDS011;3539;47.982;12.238;2023-05-10T01:50:55;2.00;;;1.73;;
6997;SDS011;3539;47.982;12.238;2023-05-10T01:53:42;2.10;;;1.90;;
6997;SDS011;3539;47.982;12.238;2023-05-10T01:56:11;2.07;;;1.80;;
6997;SDS011;3539;47.982;12.238;2023-05-10T01:58:38;1.50;;;1.40;;
6997;SDS011;3539;47.982;12.238;2023-05-10T02:01:07;1.50;;;1.40;;
6997;SDS011;3539;47.982;12.238;2023-05-10T02:03:36;1.60;;;1.30;;
6997;SDS011;3539;47.982;12.238;2023-05-10T02:06:05;1.77;;;1.30;;
6997;SDS011;3539;47.982;12.238;2023-05-10T02:08:32;1.50;;;1.40;;
6997;SDS011;3539;47.982;12.238;2023-05-10T02:11:03;1.27;;;1.20;;
6997;SDS011;3539;47.982;12.238;2023-05-10T02:13:44;1.73;;;1.40;;
6997;SDS011;3539;47.982;12.238;2023-05-10T02:16:13;1.40;;;1.30;;
6997;SDS011;3539;47.982;12.238;2023-05-10T02:18:42;1.40;;;1.30;;
6997;SDS011;3539;47.982;12.238;2023-05-10T02:21:09;1.67;;;1.40;;
6997;SDS011;3539;47.982;12.238;2023-05-10T02:23:36;1.37;;;1.20;;
6997;SDS011;3539;47.982;12.238;2023-05-10T02:26:03;1.20;;;1.10;;
6997;SDS011;3539;47.982;12.238;2023-05-10T02:28:32;1.20;;;1.10;;
6997;SDS011;3539;47.982;12.238;2023-05-10T02:31:00;1.20;;;1.10;;
6997;SDS011;3539;47.982;12.238;2023-05-10T02:33:27;1.40;;;1.30;;
6997;SDS011;3539;47.982;12.238;2023-05-10T02:35:56;1.77;;;1.10;;
6997;SDS011;3539;47.982;12.238;2023-05-10T02:38:23;1.10;;;1.00;;
6997;SDS011;3539;47.982;12.238;2023-05-10T02:40:51;1.63;;;1.30;;
6997;SDS011;3539;47.982;12.238;2023-05-10T02:43:18;1.23;;;1.10;;
6997;SDS011;3539;47.982;12.238;2023-05-10T02:45:47;1.37;;;1.27;;
6997;SDS011;3539;47.982;12.238;2023-05-10T02:48:15;1.30;;;1.20;;
6997;SDS011;3539;47.982;12.238;2023-05-10T02:50:42;1.53;;;1.43;;
6997;SDS011;3539;47.982;12.238;2023-05-10T02:53:15;1.33;;;1.23;;
6997;SDS011;3539;47.982;12.238;2023-05-10T02:55:42;1.87;;;1.27;;
6997;SDS011;3539;47.982;12.238;2023-05-10T02:58:11;1.70;;;1.23;;
6997;SDS011;3539;47.982;12.238;2023-05-10T03:00:38;1.30;;;1.20;;
6997;SDS011;3539;47.982;12.238;2023-05-10T03:03:05;1.40;;;1.30;;
6997;SDS011;3539;47.982;12.238;2023-05-10T03:05:32;1.40;;;1.30;;
6997;SDS011;3539;47.982;12.238;2023-05-10T03:07:59;1.00;;;1.00;;
6997;SDS011;3539;47.982;12.238;2023-05-10T03:10:30;1.30;;;1.20;;
6997;SDS011;3539;47.982;12.238;2023-05-10T03:13:06;1.40;;;1.30;;
6997;SDS011;3539;47.982;12.238;2023-05-10T03:15:37;1.97;;;1.30;;
6997;SDS011;3539;47.982;12.238;2023-05-10T03:18:09;1.10;;;1.00;;
6997;SDS011;3539;47.982;12.238;2023-05-10T03:20:42;1.20;;;1.10;;
6997;SDS011;3539;47.982;12.238;2023-05-10T03:23:11;1.30;;;1.20;;
6997;SDS011;3539;47.982;12.238;2023-05-10T03:25:41;1.20;;;1.10;;
6997;SDS011;3539;47.982;12.238;2023-05-10T03:28:10;1.20;;;1.10;;
6997;SDS011;3539;47.982;12.238;2023-05-10T03:30:38;1.17;;;1.07;;
6997;SDS011;3539;47.982;12.238;2023-05-10T03:33:05;1.20;;;1.10;;
6997;SDS011;3539;47.982;12.238;2023-05-10T03:35:32;0.90;;;0.90;;
6997;SDS011;3539;47.982;12.238;2023-05-10T03:37:59;1.20;;;1.10;;
6997;SDS011;3539;47.982;12.238;2023-05-10T03:40:26;1.07;;;0.93;;
6997;SDS011;3539;47.982;12.238;2023-05-10T03:42:58;1.40;;;1.30;;
6997;SDS011;3539;47.982;12.238;2023-05-10T03:45:25;3.70;;;3.40;;
6997;SDS011;3539;47.982;12.238;2023-05-10T03:47:52;2.73;;;2.53;;
6997;SDS011;3539;47.982;12.238;2023-05-10T03:50:20;1.50;;;1.40;;
6997;SDS011;3539;47.982;12.238;2023-05-10T03:52:47;1.27;;;1.17;;
6997;SDS011;3539;47.982;12.238;2023-05-10T03:55:13;2.20;;;1.10;;
6997;SDS011;3539;47.982;12.238;2023-05-10T03:57:41;0.90;;;0.90;;
6997;SDS011;3539;47.982;12.238;2023-05-10T04:00:10;1.10;;;1.00;;
6997;SDS011;3539;47.982;12.238;2023-05-10T04:02:37;1.03;;;1.00;;
6997;SDS011;3539;47.982;12.238;2023-05-10T04:05:04;0.83;;;0.83;;
6997;SDS011;3539;47.982;12.238;2023-05-10T04:07:31;0.90;;;0.90;;
6997;SDS011;3539;47.982;12.238;2023-05-10T04:09:58;0.90;;;0.90;;
6997;SDS011;3539;47.982;12.238;2023-05-10T04:12:28;0.73;;;0.73;;
6997;SDS011;3539;47.982;12.238;2023-05-10T04:14:55;0.70;;;0.70;;
6997;SDS011;3539;47.982;12.238;2023-05-10T04:17:23;0.93;;;0.93;;
6997;SDS011;3539;47.982;12.238;2023-05-10T04:19:49;0.73;;;0.73;;
6997;SDS011;3539;47.982;12.238;2023-05-10T04:22:18;0.83;;;0.83;;
6997;SDS011;3539;47.982;12.238;2023-05-10T04:24:45;0.73;;;0.73;;
6997;SDS011;3539;47.982;12.238;2023-05-10T04:27:11;0.90;;;0.90;;
6997;SDS011;3539;47.982;12.238;2023-05-10T04:29:38;0.90;;;0.90;;
6997;SDS011;3539;47.982;12.238;2023-05-10T04:32:05;0.70;;;0.70;;
6997;SDS011;3539;47.982;12.238;2023-05-10T04:34:33;0.80;;;0.80;;
6997;SDS011;3539;47.982;12.238;2023-05-10T04:37:00;0.77;;;0.70;;
6997;SDS011;3539;47.982;12.238;2023-05-10T04:39:27;0.60;;;0.60;;
6997;SDS011;3539;47.982;12.238;2023-05-10T04:41:53;0.93;;;0.80;;
6997;SDS011;3539;47.982;12.238;2023-05-10T04:44:20;0.70;;;0.70;;
6997;SDS011;3539;47.982;12.238;2023-05-10T04:46:47;0.63;;;0.63;;
6997;SDS011;3539;47.982;12.238;2023-05-10T04:49:14;0.80;;;0.80;;
6997;SDS011;3539;47.982;12.238;2023-05-10T04:51:43;0.60;;;0.60;;
6997;SDS011;3539;47.982;12.238;2023-05-10T04:54:09;0.87;;;0.87;;
6997;SDS011;3539;47.982;12.238;2023-05-10T04:56:36;0.70;;;0.70;;
6997;SDS011;3539;47.982;12.238;2023-05-10T04:59:03;0.60;;;0.60;;
6997;SDS011;3539;47.982;12.238;2023-05-10T05:01:30;0.70;;;0.70;;
6997;SDS011;3539;47.982;12.238;2023-05-10T05:03:56;0.90;;;0.90;;
6997;SDS011;3539;47.982;12.238;2023-05-10T05:06:23;2.00;;;1.07;;
6997;SDS011;3539;47.982;12.238;2023-05-10T05:08:53;0.90;;;0.90;;
6997;SDS011;3539;47.982;12.238;2023-05-10T05:11:20;1.10;;;0.70;;
6997;SDS011;3539;47.982;12.238;2023-05-10T05:13:47;0.83;;;0.83;;
6997;SDS011;3539;47.982;12.238;2023-05-10T05:16:13;1.00;;;0.93;;
6997;SDS011;3539;47.982;12.238;2023-05-10T05:18:40;0.70;;;0.70;;
6997;SDS011;3539;47.982;12.238;2023-05-10T05:21:13;0.80;;;0.80;;
6997;SDS011;3539;47.982;12.238;2023-05-10T05:23:41;0.70;;;0.70;;
6997;SDS011;3539;47.982;12.238;2023-05-10T05:26:09;2.10;;;0.80;;
6997;SDS011;3539;47.982;12.238;2023-05-10T05:28:36;1.53;;;0.83;;
6997;SDS011;3539;47.982;12.238;2023-05-10T05:31:03;0.67;;;0.67;;
6997;SDS011;3539;47.982;12.238;2023-05-10T05:33:30;1.67;;;0.70;;
6997;SDS011;3539;47.982;12.238;2023-05-10T05:35:57;0.77;;;0.70;;
6997;SDS011;3539;47.982;12.238;2023-05-10T05:38:26;0.70;;;0.70;;
6997;SDS011;3539;47.982;12.238;2023-05-10T05:40:53;1.00;;;0.90;;
6997;SDS011;3539;47.982;12.238;2023-05-10T05:43:21;0.60;;;0.60;;
6997;SDS011;3539;47.982;12.238;2023-05-10T05:45:48;0.90;;;0.90;;
6997;SDS011;3539;47.982;12.238;2023-05-10T05:48:15;0.60;;;0.60;;
6997;SDS011;3539;47.982;12.238;2023-05-10T05:50:42;0.60;;;0.60;;
6997;SDS011;3539;47.982;12.238;2023-05-10T05:53:09;0.97;;;0.77;;
6997;SDS011;3539;47.982;12.238;2023-05-10T05:55:35;0.50;;;0.50;;
6997;SDS011;3539;47.982;12.238;2023-05-10T05:58:02;0.80;;;0.77;;
6997;SDS011;3539;47.982;12.238;2023-05-10T06:00:30;0.60;;;0.60;;
6997;SDS011;3539;47.982;12.238;2023-05-10T06:02:57;0.60;;;0.60;;
6997;SDS011;3539;47.982;12.238;2023-05-10T06:05:24;2.07;;;0.70;;
6997;SDS011;3539;47.982;12.238;2023-05-10T06:07:51;0.70;;;0.70;;
6997;SDS011;3539;47.982;12.238;2023-05-10T06:10:18;0.70;;;0.60;;
6997;SDS011;3539;47.982;12.238;2023-05-10T06:12:44;0.70;;;0.70;;
6997;SDS011;3539;47.982;12.238;2023-05-10T06:15:11;0.80;;;0.80;;
6997;SDS011;3539;47.982;12.238;2023-05-10T06:17:39;0.73;;;0.60;;
6997;SDS011;3539;47.982;12.238;2023-05-10T06:20:08;0.83;;;0.70;;
6997;SDS011;3539;47.982;12.238;2023-05-10T06:22:35;0.77;;;0.70;;
6997;SDS011;3539;47.982;12.238;2023-05-10T06:25:02;0.50;;;0.50;;
6997;SDS011;3539;47.982;12.238;2023-05-10T06:27:29;0.60;;;0.60;;
6997;SDS011;3539;47.982;12.238;2023-05-10T06:29:56;0.63;;;0.63;;
6997;SDS011;3539;47.982;12.238;2023-05-10T06:32:23;0.70;;;0.63;;
6997;SDS011;3539;47.982;12.238;2023-05-10T06:34:51;0.70;;;0.70;;
6997;SDS011;3539;47.982;12.238;2023-05-10T06:37:18;1.63;;;0.73;;
6997;SDS011;3539;47.982;12.238;2023-05-10T06:39:45;1.00;;;0.70;;
6997;SDS011;3539;47.982;12.238;2023-05-10T06:42:12;0.63;;;0.63;;
6997;SDS011;3539;47.982;12.238;2023-05-10T06:44:39;1.03;;;0.70;;
6997;SDS011;3539;47.982;12.238;2023-05-10T06:47:06;1.27;;;0.50;;
6997;SDS011;3539;47.982;12.238;2023-05-10T06:49:33;0.60;;;0.60;;
6997;SDS011;3539;47.982;12.238;2023-05-10T06:52:02;0.50;;;0.40;;
6997;SDS011;3539;47.982;12.238;2023-05-10T06:54:32;1.00;;;0.60;;
6997;SDS011;3539;47.982;12.238;2023-05-10T06:56:59;0.63;;;0.63;;
6997;SDS011;3539;47.982;12.238;2023-05-10T06:59:28;0.53;;;0.53;;
6997;SDS011;3539;47.982;12.238;2023-05-10T07:01:55;0.70;;;0.70;;
6997;SDS011;3539;47.982;12.238;2023-05-10T07:04:21;0.63;;;0.63;;
6997;SDS011;3539;47.982;12.238;2023-05-10T07:06:48;0.83;;;0.80;;
6997;SDS011;3539;47.982;12.238;2023-05-10T07:09:17;1.07;;;0.90;;
6997;SDS011;3539;47.982;12.238;2023-05-10T07:11:43;1.23;;;0.90;;
6997;SDS011;3539;47.982;12.238;2023-05-10T07:14:10;1.30;;;1.10;;
6997;SDS011;3539;47.982;12.238;2023-05-10T07:16:37;1.30;;;1.00;;
6997;SDS011;3539;47.982;12.238;2023-05-10T07:19:04;1.30;;;1.00;;
6997;SDS011;3539;47.982;12.238;2023-05-10T07:21:34;1.20;;;1.00;;
6997;SDS011;3539;47.982;12.238;2023-05-10T07:24:08;1.13;;;1.03;;
6997;SDS011;3539;47.982;12.238;2023-05-10T07:26:36;1.27;;;1.10;;
6997;SDS011;3539;47.982;12.238;2023-05-10T07:29:03;1.67;;;1.20;;
6997;SDS011;3539;47.982;12.238;2023-05-10T07:31:30;2.13;;;1.20;;
6997;SDS011;3539;47.982;12.238;2023-05-10T07:33:57;1.20;;;1.10;;
6997;SDS011;3539;47.982;12.238;2023-05-10T07:36:23;1.80;;;1.20;;
6997;SDS011;3539;47.982;12.238;2023-05-10T07:38:50;1.80;;;1.20;;
6997;SDS011;3539;47.982;12.238;2023-05-10T07:41:17;1.70;;;1.30;;
6997;SDS011;3539;47.982;12.238;2023-05-10T07:43:45;1.37;;;1.10;;
6997;SDS011;3539;47.982;12.238;2023-05-10T07:46:12;1.27;;;1.10;;
6997;SDS011;3539;47.982;12.238;2023-05-10T07:48:38;1.03;;;1.00;;
6997;SDS011;3539;47.982;12.238;2023-05-10T07:51:05;1.60;;;1.20;;
6997;SDS011;3539;47.982;12.238;2023-05-10T07:53:34;1.40;;;1.30;;
6997;SDS011;3539;47.982;12.238;2023-05-10T07:56:19;2.93;;;1.57;;
6997;SDS011;3539;47.982;12.238;2023-05-10T07:58:49;2.03;;;1.40;;
6997;SDS011;3539;47.982;12.238;2023-05-10T08:01:15;1.40;;;1.30;;
6997;SDS011;3539;47.982;12.238;2023-05-10T08:03:42;3.13;;;1.60;;
6997;SDS011;3539;47.982;12.238;2023-05-10T08:06:09;5.43;;;1.40;;
6997;SDS011;3539;47.982;12.238;2023-05-10T08:08:36;1.50;;;1.40;;
6997;SDS011;3539;47.982;12.238;2023-05-10T08:11:03;2.37;;;1.60;;
6997;SDS011;3539;47.982;12.238;2023-05-10T08:13:29;2.07;;;1.70;;
6997;SDS011;3539;47.982;12.238;2023-05-10T08:15:58;2.90;;;1.50;;
6997;SDS011;3539;47.982;12.238;2023-05-10T08:18:25;1.70;;;1.60;;
6997;SDS011;3539;47.982;12.238;2023-05-10T08:20:52;1.43;;;1.33;;
6997;SDS011;3539;47.982;12.238;2023-05-10T08:23:19;2.40;;;1.73;;
6997;SDS011;3539;47.982;12.238;2023-05-10T08:25:46;1.47;;;1.37;;
6997;SDS011;3539;47.982;12.238;2023-05-10T08:28:12;1.70;;;1.60;;
6997;SDS011;3539;47.982;12.238;2023-05-10T08:30:39;1.90;;;1.73;;
6997;SDS011;3539;47.982;12.238;2023-05-10T08:33:08;1.87;;;1.73;;
6997;SDS011;3539;47.982;12.238;2023-05-10T08:35:34;1.50;;;1.40;;
6997;SDS011;3539;47.982;12.238;2023-05-10T08:38:01;2.60;;;1.67;;
6997;SDS011;3539;47.982;12.238;2023-05-10T08:40:28;2.00;;;1.80;;
6997;SDS011;3539;47.982;12.238;2023-05-10T08:42:55;1.83;;;1.73;;
6997;SDS011;3539;47.982;12.238;2023-05-10T08:45:25;1.93;;;1.67;;
6997;SDS011;3539;47.982;12.238;2023-05-10T08:47:53;1.90;;;1.80;;
6997;SDS011;3539;47.982;12.238;2023-05-10T08:50:22;1.97;;;1.77;;
6997;SDS011;3539;47.982;12.238;2023-05-10T08:52:49;1.80;;;1.70;;
6997;SDS011;3539;47.982;12.238;2023-05-10T08:55:18;1.70;;;1.60;;
6997;SDS011;3539;47.982;12.238;2023-05-10T08:57:46;1.73;;;1.40;;
6997;SDS011;3539;47.982;12.238;2023-05-10T09:00:13;1.60;;;1.50;;
6997;SDS011;3539;47.982;12.238;2023-05-10T09:02:41;1.80;;;1.50;;
6997;SDS011;3539;47.982;12.238;2023-05-10T09:05:10;2.07;;;1.47;;
6997;SDS011;3539;47.982;12.238;2023-05-10T09:07:42;2.80;;;1.57;;
6997;SDS011;3539;47.982;12.238;2023-05-10T09:10:09;2.10;;;1.50;;
6997;SDS011;3539;47.982;12.238;2023-05-10T09:12:37;1.23;;;1.13;;
6997;SDS011;3539;47.982;12.238;2023-05-10T09:15:05;1.40;;;1.30;;
6997;SDS011;3539;47.982;12.238;2023-05-10T09:17:33;1.47;;;1.30;;
6997;SDS011;3539;47.982;12.238;2023-05-10T09:20:00;1.87;;;1.30;;
6997;SDS011;3539;47.982;12.238;2023-05-10T09:22:27;1.53;;;1.30;;
6997;SDS011;3539;47.982;12.238;2023-05-10T09:25:05;1.20;;;1.10;;
6997;SDS011;3539;47.982;12.238;2023-05-10T09:27:33;2.00;;;1.60;;
6997;SDS011;3539;47.982;12.238;2023-05-10T09:30:00;1.17;;;1.07;;
6997;SDS011;3539;47.982;12.238;2023-05-10T09:32:35;1.33;;;1.10;;
6997;SDS011;3539;47.982;12.238;2023-05-10T09:35:06;1.27;;;1.17;;
6997;SDS011;3539;47.982;12.238;2023-05-10T09:37:33;1.17;;;1.07;;
6997;SDS011;3539;47.982;12.238;2023-05-10T09:40:00;2.67;;;1.40;;
6997;SDS011;3539;47.982;12.238;2023-05-10T09:42:29;2.27;;;1.37;;
6997;SDS011;3539;47.982;12.238;2023-05-10T09:44:59;3.67;;;1.90;;
6997;SDS011;3539;47.982;12.238;2023-05-10T09:47:27;2.20;;;2.00;;
6997;SDS011;3539;47.982;12.238;2023-05-10T09:49:54;4.77;;;1.80;;
6997;SDS011;3539;47.982;12.238;2023-05-10T09:52:22;1.97;;;1.43;;
6997;SDS011;3539;47.982;12.238;2023-05-10T09:54:52;1.53;;;1.30;;
6997;SDS011;3539;47.982;12.238;2023-05-10T09:57:20;1.60;;;1.50;;
6997;SDS011;3539;47.982;12.238;2023-05-10T09:59:48;2.77;;;1.50;;
6997;SDS011;3539;47.982;12.238;2023-05-10T10:02:15;2.80;;;1.30;;
6997;SDS011;3539;47.982;12.238;2023-05-10T10:04:42;3.10;;;1.83;;
6997;SDS011;3539;47.982;12.238;2023-05-10T10:07:09;2.80;;;1.80;;
6997;SDS011;3539;47.982;12.238;2023-05-10T10:09:36;1.50;;;1.40;;
6997;SDS011;3539;47.982;12.238;2023-05-10T10:12:03;7.43;;;5.57;;
6997;SDS011;3539;47.982;12.238;2023-05-10T10:14:30;1.70;;;1.60;;
6997;SDS011;3539;47.982;12.238;2023-05-10T10:16:58;1.53;;;1.43;;
6997;SDS011;3539;47.982;12.238;2023-05-10T10:19:26;1.63;;;1.53;;
6997;SDS011;3539;47.982;12.238;2023-05-10T10:21:53;1.63;;;1.30;;
6997;SDS011;3539;47.982;12.238;2023-05-10T10:24:20;1.83;;;1.57;;
6997;SDS011;3539;47.982;12.238;2023-05-10T10:26:47;2.27;;;1.77;;
6997;SDS011;3539;47.982;12.238;2023-05-10T10:29:18;3.17;;;1.73;;
6997;SDS011;3539;47.982;12.238;2023-05-10T10:31:49;2.30;;;2.07;;
6997;SDS011;3539;47.982;12.238;2023-05-10T10:34:26;2.27;;;2.07;;
6997;SDS011;3539;47.982;12.238;2023-05-10T10:36:54;1.90;;;1.80;;
6997;SDS011;3539;47.982;12.238;2023-05-10T10:39:22;2.00;;;1.50;;
6997;SDS011;3539;47.982;12.238;2023-05-10T10:41:51;1.90;;;1.30;;
6997;SDS011;3539;47.982;12.238;2023-05-10T10:44:34;1.20;;;1.10;;
6997;SDS011;3539;47.982;12.238;2023-05-10T10:47:04;1.07;;;1.00;;
6997;SDS011;3539;47.982;12.238;2023-05-10T10:49:38;0.83;;;0.83;;
6997;SDS011;3539;47.982;12.238;2023-05-10T10:52:22;1.80;;;1.00;;
6997;SDS011;3539;47.982;12.238;2023-05-10T10:54:57;1.10;;;1.00;;
6997;SDS011;3539;47.982;12.238;2023-05-10T10:57:25;1.57;;;1.27;;
6997;SDS011;3539;47.982;12.238;2023-05-10T10:59:56;1.97;;;1.40;;
6997;SDS011;3539;47.982;12.238;2023-05-10T11:02:50;2.33;;;1.40;;
6997;SDS011;3539;47.982;12.238;2023-05-10T11:08:11;1.40;;;1.30;;
6997;SDS011;3539;47.982;12.238;2023-05-10T11:10:49;1.53;;;1.43;;
6997;SDS011;3539;47.982;12.238;2023-05-10T11:13:33;1.93;;;1.73;;
6997;SDS011;3539;47.982;12.238;2023-05-10T11:16:11;1.73;;;1.63;;
6997;SDS011;3539;47.982;12.238;2023-05-10T11:18:57;1.60;;;1.50;;
6997;SDS011;3539;47.982;12.238;2023-05-10T11:21:28;2.37;;;1.93;;
6997;SDS011;3539;47.982;12.238;2023-05-10T11:23:55;2.70;;;2.00;;
6997;SDS011;3539;47.982;12.238;2023-05-10T11:26:23;2.37;;;1.90;;
6997;SDS011;3539;47.982;12.238;2023-05-10T11:28:51;1.70;;;1.60;;
6997;SDS011;3539;47.982;12.238;2023-05-10T11:31:19;2.10;;;1.90;;
6997;SDS011;3539;47.982;12.238;2023-05-10T11:33:46;2.53;;;2.00;;
6997;SDS011;3539;47.982;12.238;2023-05-10T11:36:15;2.03;;;1.83;;
6997;SDS011;3539;47.982;12.238;2023-05-10T11:38:44;2.47;;;1.70;;
6997;SDS011;3539;47.982;12.238;2023-05-10T11:41:11;2.03;;;1.80;;
6997;SDS011;3539;47.982;12.238;2023-05-10T11:43:38;1.80;;;1.70;;
6997;SDS011;3539;47.982;12.238;2023-05-10T11:46:06;1.60;;;1.50;;
6997;SDS011;3539;47.982;12.238;2023-05-10T11:48:36;1.57;;;1.47;;
6997;SDS011;3539;47.982;12.238;2023-05-10T11:51:03;1.73;;;1.63;;
6997;SDS011;3539;47.982;12.238;2023-05-10T11:53:31;2.23;;;1.70;;
6997;SDS011;3539;47.982;12.238;2023-05-10T11:56:03;3.37;;;2.00;;
6997;SDS011;3539;47.982;12.238;2023-05-10T11:58:31;1.60;;;1.50;;
6997;SDS011;3539;47.982;12.238;2023-05-10T12:00:58;1.60;;;1.50;;
6997;SDS011;3539;47.982;12.238;2023-05-10T12:03:36;1.60;;;1.50;;
6997;SDS011;3539;47.982;12.238;2023-05-10T12:06:06;1.53;;;1.43;;
6997;SDS011;3539;47.982;12.238;2023-05-10T12:08:33;1.47;;;1.33;;
6997;SDS011;3539;47.982;12.238;2023-05-10T12:11:05;1.50;;;1.40;;
6997;SDS011;3539;47.982;12.238;2023-05-10T12:13:37;1.23;;;1.13;;
6997;SDS011;3539;47.982;12.238;2023-05-10T12:16:12;1.93;;;1.47;;
6997;SDS011;3539;47.982;12.238;2023-05-10T12:18:39;1.30;;;1.20;;
6997;SDS011;3539;47.982;12.238;2023-05-10T12:21:06;1.50;;;1.40;;
6997;SDS011;3539;47.982;12.238;2023-05-10T12:23:33;1.30;;;1.20;;
6997;SDS011;3539;47.982;12.238;2023-05-10T12:26:01;1.30;;;1.20;;
6997;SDS011;3539;47.982;12.238;2023-05-10T12:28:31;1.20;;;1.10;;
6997;SDS011;3539;47.982;12.238;2023-05-10T12:30:58;1.40;;;1.30;;
6997;SDS011;3539;47.982;12.238;2023-05-10T12:33:26;1.30;;;1.20;;
6997;SDS011;3539;47.982;12.238;2023-05-10T12:35:53;1.80;;;1.20;;
6997;SDS011;3539;47.982;12.238;2023-05-10T12:38:28;1.20;;;1.10;;
6997;SDS011;3539;47.982;12.238;2023-05-10T12:40:56;1.40;;;1.20;;
6997;SDS011;3539;47.982;12.238;2023-05-10T12:43:23;0.90;;;0.90;;
6997;SDS011;3539;47.982;12.238;2023-05-10T12:45:52;1.17;;;1.10;;
6997;SDS011;3539;47.982;12.238;2023-05-10T12:48:19;1.27;;;1.00;;
6997;SDS011;3539;47.982;12.238;2023-05-10T12:50:46;1.37;;;1.10;;
6997;SDS011;3539;47.982;12.238;2023-05-10T12:53:13;1.37;;;1.20;;
6997;SDS011;3539;47.982;12.238;2023-05-10T12:55:41;1.10;;;1.00;;
6997;SDS011;3539;47.982;12.238;2023-05-10T12:58:07;1.30;;;1.20;;
6997;SDS011;3539;47.982;12.238;2023-05-10T13:00:35;1.90;;;1.40;;
6997;SDS011;3539;47.982;12.238;2023-05-10T13:03:06;1.83;;;1.50;;
6997;SDS011;3539;47.982;12.238;2023-05-10T13:05:37;1.93;;;1.00;;
6997;SDS011;3539;47.982;12.238;2023-05-10T13:08:18;1.03;;;1.00;;
6997;SDS011;3539;47.982;12.238;2023-05-10T13:10:44;2.13;;;0.90;;
6997;SDS011;3539;47.982;12.238;2023-05-10T13:13:17;1.33;;;0.90;;
6997;SDS011;3539;47.982;12.238;2023-05-10T13:15:54;0.73;;;0.73;;
6997;SDS011;3539;47.982;12.238;2023-05-10T13:21:56;2.20;;;2.00;;
6997;SDS011;3539;47.982;12.238;2023-05-10T13:24:23;0.77;;;0.73;;
6997;SDS011;3539;47.982;12.238;2023-05-10T13:26:52;0.73;;;0.73;;
6997;SDS011;3539;47.982;12.238;2023-05-10T13:29:18;1.77;;;0.93;;
6997;SDS011;3539;47.982;12.238;2023-05-10T13:31:50;0.90;;;0.90;;
6997;SDS011;3539;47.982;12.238;2023-05-10T13:34:17;1.30;;;0.93;;
6997;SDS011;3539;47.982;12.238;2023-05-10T13:37:05;0.90;;;0.90;;
6997;SDS011;3539;47.982;12.238;2023-05-10T13:39:32;1.00;;;0.90;;
6997;SDS011;3539;47.982;12.238;2023-05-10T13:41:59;2.30;;;1.00;;
6997;SDS011;3539;47.982;12.238;2023-05-10T13:44:26;1.10;;;1.00;;
6997;SDS011;3539;47.982;12.238;2023-05-10T13:46:53;1.33;;;1.00;;
6997;SDS011;3539;47.982;12.238;2023-05-10T13:49:20;1.00;;;1.00;;
6997;SDS011;3539;47.982;12.238;2023-05-10T13:51:47;0.87;;;0.87;;
6997;SDS011;3539;47.982;12.238;2023-05-10T13:54:15;1.20;;;1.10;;
6997;SDS011;3539;47.982;12.238;2023-05-10T13:56:44;1.30;;;1.20;;
6997;SDS011;3539;47.982;12.238;2023-05-10T13:59:12;1.23;;;1.03;;
6997;SDS011;3539;47.982;12.238;2023-05-10T14:01:39;1.33;;;1.23;;
6997;SDS011;3539;47.982;12.238;2023-05-10T14:04:06;1.00;;;1.00;;
6997;SDS011;3539;47.982;12.238;2023-05-10T14:06:35;1.50;;;1.10;;
6997;SDS011;3539;47.982;12.238;2023-05-10T14:09:02;1.30;;;1.20;;
6997;SDS011;3539;47.982;12.238;2023-05-10T14:11:30;2.60;;;2.00;;
6997;SDS011;3539;47.982;12.238;2023-05-10T14:13:57;1.50;;;1.40;;
6997;SDS011;3539;47.982;12.238;2023-05-10T14:16:23;1.53;;;1.40;;
6997;SDS011;3539;47.982;12.238;2023-05-10T14:18:51;1.10;;;1.10;;
6997;SDS011;3539;47.982;12.238;2023-05-10T14:21:18;1.40;;;1.30;;
6997;SDS011;3539;47.982;12.238;2023-05-10T14:23:45;3.47;;;2.23;;
6997;SDS011;3539;47.982;12.238;2023-05-10T14:26:12;1.30;;;1.20;;
6997;SDS011;3539;47.982;12.238;2023-05-10T14:28:41;3.23;;;1.47;;
6997;SDS011;3539;47.982;12.238;2023-05-10T14:31:07;1.30;;;1.20;;
6997;SDS011;3539;47.982;12.238;2023-05-10T14:33:37;1.40;;;1.30;;
6997;SDS011;3539;47.982;12.238;2023-05-10T14:36:04;1.57;;;1.47;;
6997;SDS011;3539;47.982;12.238;2023-05-10T14:38:31;1.87;;;1.40;;
6997;SDS011;3539;47.982;12.238;2023-05-10T14:40:58;1.77;;;1.40;;
6997;SDS011;3539;47.982;12.238;2023-05-10T14:43:25;1.30;;;1.20;;
6997;SDS011;3539;47.982;12.238;2023-05-10T14:45:54;1.60;;;1.10;;
6997;SDS011;3539;47.982;12.238;2023-05-10T14:48:21;1.30;;;1.20;;
6997;SDS011;3539;47.982;12.238;2023-05-10T14:50:48;4.23;;;1.13;;
6997;SDS011;3539;47.982;12.238;2023-05-10T14:53:17;1.20;;;1.10;;
6997;SDS011;3539;47.982;12.238;2023-05-10T14:55:44;1.83;;;1.03;;
6997;SDS011;3539;47.982;12.238;2023-05-10T14:58:11;1.10;;;1.10;;
6997;SDS011;3539;47.982;12.238;2023-05-10T15:00:39;1.27;;;1.10;;
6997;SDS011;3539;47.982;12.238;2023-05-10T15:03:08;2.13;;;1.20;;
6997;SDS011;3539;47.982;12.238;2023-05-10T15:05:35;2.17;;;1.67;;
6997;SDS011;3539;47.982;12.238;2023-05-10T15:08:03;9.53;;;5.47;;
6997;SDS011;3539;47.982;12.238;2023-05-10T15:10:30;8.37;;;4.63;;
6997;SDS011;3539;47.982;12.238;2023-05-10T15:12:58;1.60;;;1.50;;
6997;SDS011;3539;47.982;12.238;2023-05-10T15:15:26;4.70;;;3.40;;
6997;SDS011;3539;47.982;12.238;2023-05-10T15:17:52;3.03;;;2.73;;